sensor_id;sensor_type;location;lat;lon;timestamp;pressure;altitude;pressure_sealevel;temperature;humidity
9764;BME280;4921;43.214;27.936;2022-10-16T00:00:32;101741.28;;;15.20;96.22
9764;BME280;4921;43.214;27.936;2022-10-16T00:02:59;101740.22;;;15.23;95.71
9764;BME280;4921;43.214;27.936;2022-10-16T00:05:27;101739.25;;;15.24;95.13
9764;BME280;4921;43.214;27.936;2022-10-16T00:07:54;101736.97;;;15.19;95.83
9764;BME280;4921;43.214;27.936;2022-10-16T00:10:21;101744.34;;;15.16;95.67
9764;BME280;4921;43.214;27.936;2022-10-16T00:12:48;101743.88;;;15.11;96.46
9764;BME280;4921;43.214;27.936;2022-10-16T00:15:16;101746.66;;;15.09;95.80
9764;BME280;4921;43.214;27.936;2022-10-16T00:17:44;101748.81;;;15.04;95.67
9764;BME280;4921;43.214;27.936;2022-10-16T00:20:11;101745.31;;;15.04;95.55
9764;BME280;4921;43.214;27.936;2022-10-16T00:22:38;101751.34;;;14.95;96.59
9764;BME280;4921;43.214;27.936;2022-10-16T00:25:05;101750.88;;;14.90;96.66
9764;BME280;4921;43.214;27.936;2022-10-16T00:27:33;101746.19;;;14.93;95.56
9764;BME280;4921;43.214;27.936;2022-10-16T00:30:00;101742.19;;;14.99;94.42
9764;BME280;4921;43.214;27.936;2022-10-16T00:32:27;101752.41;;;14.92;94.43
9764;BME280;4921;43.214;27.936;2022-10-16T00:34:55;101751.97;;;14.87;95.02
9764;BME280;4921;43.214;27.936;2022-10-16T00:37:22;101749.91;;;14.80;95.23
9764;BME280;4921;43.214;27.936;2022-10-16T00:39:49;101735.94;;;14.78;95.53
9764;BME280;4921;43.214;27.936;2022-10-16T00:42:17;101748.25;;;14.68;96.25
9764;BME280;4921;43.214;27.936;2022-10-16T00:44:48;101737.78;;;14.66;96.54
9764;BME280;4921;43.214;27.936;2022-10-16T00:47:21;101730.56;;;14.68;96.06
9764;BME280;4921;43.214;27.936;2022-10-16T00:49:52;101744.38;;;14.72;95.24
9764;BME280;4921;43.214;27.936;2022-10-16T00:52:21;101734.88;;;14.69;94.93
9764;BME280;4921;43.214;27.936;2022-10-16T00:54:49;101732.47;;;14.66;94.49
9764;BME280;4921;43.214;27.936;2022-10-16T00:57:19;101733.28;;;14.67;94.20
9764;BME280;4921;43.214;27.936;2022-10-16T00:59:46;101732.00;;;14.72;93.53
9764;BME280;4921;43.214;27.936;2022-10-16T01:02:15;101729.47;;;14.71;93.50
9764;BME280;4921;43.214;27.936;2022-10-16T01:04:44;101734.16;;;14.67;93.72
9764;BME280;4921;43.214;27.936;2022-10-16T01:07:20;101734.78;;;14.71;92.91
9764;BME280;4921;43.214;27.936;2022-10-16T01:10:01;101735.00;;;14.68;92.47
9764;BME280;4921;43.214;27.936;2022-10-16T01:12:36;101747.66;;;14.64;93.00
9764;BME280;4921;43.214;27.936;2022-10-16T01:15:10;101749.81;;;14.59;94.16
9764;BME280;4921;43.214;27.936;2022-10-16T01:17:43;101751.22;;;14.52;95.08
9764;BME280;4921;43.214;27.936;2022-10-16T01:20:20;101756.03;;;14.58;94.52
9764;BME280;4921;43.214;27.936;2022-10-16T01:26:13;101758.81;;;14.68;92.62
9764;BME280;4921;43.214;27.936;2022-10-16T01:28:45;101764.59;;;14.62;93.42
9764;BME280;4921;43.214;27.936;2022-10-16T01:31:17;101765.19;;;14.65;93.08
9764;BME280;4921;43.214;27.936;2022-10-16T01:33:47;101764.84;;;14.70;92.37
9764;BME280;4921;43.214;27.936;2022-10-16T01:36:21;101766.41;;;14.61;92.56
9764;BME280;4921;43.214;27.936;2022-10-16T01:38:53;101771.56;;;14.51;92.39
9764;BME280;4921;43.214;27.936;2022-10-16T01:41:24;101778.31;;;14.44;92.67
9764;BME280;4921;43.214;27.936;2022-10-16T01:43:59;101780.97;;;14.44;92.61
9764;BME280;4921;43.214;27.936;2022-10-16T01:46:30;101777.69;;;14.41;92.11
9764;BME280;4921;43.214;27.936;2022-10-16T01:48:59;101779.63;;;14.39;92.05
9764;BME280;4921;43.214;27.936;2022-10-16T01:51:27;101780.66;;;14.25;92.65
9764;BME280;4921;43.214;27.936;2022-10-16T01:53:58;101784.22;;;14.13;93.62
9764;BME280;4921;43.214;27.936;2022-10-16T01:56:26;101778.72;;;14.16;93.87
9764;BME280;4921;43.214;27.936;2022-10-16T01:58:59;101784.72;;;14.18;93.71
9764;BME280;4921;43.214;27.936;2022-10-16T02:01:30;101779.53;;;14.17;93.62
9764;BME280;4921;43.214;27.936;2022-10-16T02:04:01;101775.00;;;14.19;93.41
9764;BME280;4921;43.214;27.936;2022-10-16T02:06:28;101766.19;;;14.18;92.91
9764;BME280;4921;43.214;27.936;2022-10-16T02:08:56;101767.53;;;14.24;92.18
9764;BME280;4921;43.214;27.936;2022-10-16T02:11:23;101779.25;;;14.32;90.75
9764;BME280;4921;43.214;27.936;2022-10-16T02:13:54;101778.66;;;14.29;90.92
9764;BME280;4921;43.214;27.936;2022-10-16T02:16:33;101780.88;;;14.22;90.63
9764;BME280;4921;43.214;27.936;2022-10-16T02:19:00;101783.31;;;14.25;90.08
9764;BME280;4921;43.214;27.936;2022-10-16T02:21:29;101768.97;;;14.28;88.94
9764;BME280;4921;43.214;27.936;2022-10-16T02:24:03;101780.75;;;14.24;87.81
9764;BME280;4921;43.214;27.936;2022-10-16T02:26:35;101774.50;;;14.25;86.76
9764;BME280;4921;43.214;27.936;2022-10-16T02:29:08;101787.84;;;14.12;87.28
9764;BME280;4921;43.214;27.936;2022-10-16T02:31:48;101789.63;;;14.12;86.87
9764;BME280;4921;43.214;27.936;2022-10-16T02:34:18;101787.72;;;14.14;85.97
9764;BME280;4921;43.214;27.936;2022-10-16T02:36:48;101800.22;;;14.12;85.27
9764;BME280;4921;43.214;27.936;2022-10-16T02:39:18;101794.94;;;14.12;85.21
9764;BME280;4921;43.214;27.936;2022-10-16T02:41:45;101788.88;;;13.99;84.15
9764;BME280;4921;43.214;27.936;2022-10-16T02:44:12;101794.50;;;13.94;84.25
9764;BME280;4921;43.214;27.936;2022-10-16T02:46:40;101794.38;;;13.96;83.51
9764;BME280;4921;43.214;27.936;2022-10-16T02:49:07;101798.72;;;13.97;82.86
9764;BME280;4921;43.214;27.936;2022-10-16T02:51:34;101804.34;;;13.92;83.41
9764;BME280;4921;43.214;27.936;2022-10-16T02:54:01;101801.59;;;13.94;82.81
9764;BME280;4921;43.214;27.936;2022-10-16T02:56:28;101808.41;;;13.85;83.34
9764;BME280;4921;43.214;27.936;2022-10-16T02:58:56;101809.25;;;13.86;83.65
9764;BME280;4921;43.214;27.936;2022-10-16T03:01:23;101787.38;;;13.84;83.13
9764;BME280;4921;43.214;27.936;2022-10-16T03:03:51;101801.44;;;13.84;82.54
9764;BME280;4921;43.214;27.936;2022-10-16T03:06:18;101797.44;;;13.78;83.04
9764;BME280;4921;43.214;27.936;2022-10-16T03:08:45;101804.97;;;13.72;83.92
9764;BME280;4921;43.214;27.936;2022-10-16T03:11:12;101803.78;;;13.76;83.31
9764;BME280;4921;43.214;27.936;2022-10-16T03:13:39;101808.97;;;13.77;83.04
9764;BME280;4921;43.214;27.936;2022-10-16T03:16:06;101807.53;;;13.73;83.51
9764;BME280;4921;43.214;27.936;2022-10-16T03:18:33;101815.56;;;13.72;83.59
9764;BME280;4921;43.214;27.936;2022-10-16T03:21:01;101809.41;;;13.71;83.34
9764;BME280;4921;43.214;27.936;2022-10-16T03:23:28;101815.16;;;13.65;84.24
9764;BME280;4921;43.214;27.936;2022-10-16T03:25:55;101809.53;;;13.70;83.42
9764;BME280;4921;43.214;27.936;2022-10-16T03:28:22;101810.72;;;13.66;83.56
9764;BME280;4921;43.214;27.936;2022-10-16T03:30:49;101820.44;;;13.65;83.82
9764;BME280;4921;43.214;27.936;2022-10-16T03:33:16;101819.84;;;13.62;83.89
9764;BME280;4921;43.214;27.936;2022-10-16T03:35:43;101814.22;;;13.66;83.78
9764;BME280;4921;43.214;27.936;2022-10-16T03:38:18;101814.34;;;13.65;83.88
9764;BME280;4921;43.214;27.936;2022-10-16T03:40:45;101817.06;;;13.63;83.75
9764;BME280;4921;43.214;27.936;2022-10-16T03:43:12;101825.84;;;13.64;83.65
9764;BME280;4921;43.214;27.936;2022-10-16T03:45:39;101819.84;;;13.62;83.47
9764;BME280;4921;43.214;27.936;2022-10-16T03:48:06;101828.50;;;13.64;83.42
9764;BME280;4921;43.214;27.936;2022-10-16T03:50:33;101827.25;;;13.57;83.45
9764;BME280;4921;43.214;27.936;2022-10-16T03:53:00;101831.06;;;13.53;83.99
9764;BME280;4921;43.214;27.936;2022-10-16T03:55:28;101823.13;;;13.53;83.82
9764;BME280;4921;43.214;27.936;2022-10-16T03:57:55;101824.13;;;13.52;84.50
9764;BME280;4921;43.214;27.936;2022-10-16T04:00:22;101818.75;;;13.41;85.22
9764;BME280;4921;43.214;27.936;2022-10-16T04:02:49;101815.13;;;13.42;84.82
9764;BME280;4921;43.214;27.936;2022-10-16T04:05:16;101817.78;;;13.42;85.73
9764;BME280;4921;43.214;27.936;2022-10-16T04:07:42;101823.59;;;13.47;85.66
9764;BME280;4921;43.214;27.936;2022-10-16T04:10:09;101819.78;;;13.51;86.91
9764;BME280;4921;43.214;27.936;2022-10-16T04:12:38;101829.59;;;13.49;87.88
9764;BME280;4921;43.214;27.936;2022-10-16T04:15:05;101830.13;;;13.54;87.82
9764;BME280;4921;43.214;27.936;2022-10-16T04:17:32;101822.41;;;13.51;87.38
9764;BME280;4921;43.214;27.936;2022-10-16T04:19:59;101832.88;;;13.52;87.36
9764;BME280;4921;43.214;27.936;2022-10-16T04:22:26;101835.75;;;13.49;85.98
9764;BME280;4921;43.214;27.936;2022-10-16T04:24:53;101835.53;;;13.40;86.31
9764;BME280;4921;43.214;27.936;2022-10-16T04:27:20;101831.97;;;13.41;86.58
9764;BME280;4921;43.214;27.936;2022-10-16T04:29:48;101835.25;;;13.32;88.10
9764;BME280;4921;43.214;27.936;2022-10-16T04:32:15;101838.53;;;13.35;87.41
9764;BME280;4921;43.214;27.936;2022-10-16T04:34:42;101841.34;;;13.45;86.12
9764;BME280;4921;43.214;27.936;2022-10-16T04:37:09;101853.94;;;13.41;86.46
9764;BME280;4921;43.214;27.936;2022-10-16T04:39:36;101855.22;;;13.36;86.34
9764;BME280;4921;43.214;27.936;2022-10-16T04:42:03;101850.47;;;13.41;85.76
9764;BME280;4921;43.214;27.936;2022-10-16T04:44:30;101853.44;;;13.36;86.10
9764;BME280;4921;43.214;27.936;2022-10-16T04:46:58;101865.59;;;13.39;86.83
9764;BME280;4921;43.214;27.936;2022-10-16T04:49:25;101861.44;;;13.47;85.38
9764;BME280;4921;43.214;27.936;2022-10-16T04:51:52;101862.22;;;13.37;86.34
9764;BME280;4921;43.214;27.936;2022-10-16T04:54:19;101864.00;;;13.36;86.43
9764;BME280;4921;43.214;27.936;2022-10-16T04:56:46;101866.41;;;13.39;86.00
9764;BME280;4921;43.214;27.936;2022-10-16T04:59:14;101871.94;;;13.36;86.42
9764;BME280;4921;43.214;27.936;2022-10-16T05:01:41;101881.03;;;13.32;86.62
9764;BME280;4921;43.214;27.936;2022-10-16T05:04:09;101876.56;;;13.33;86.90
9764;BME280;4921;43.214;27.936;2022-10-16T05:06:36;101890.00;;;13.30;87.38
9764;BME280;4921;43.214;27.936;2022-10-16T05:09:04;101878.91;;;13.25;86.94
9764;BME280;4921;43.214;27.936;2022-10-16T05:11:31;101882.41;;;13.25;87.51
9764;BME280;4921;43.214;27.936;2022-10-16T05:13:58;101883.34;;;13.24;87.20
9764;BME280;4921;43.214;27.936;2022-10-16T05:16:25;101888.00;;;13.33;86.99
9764;BME280;4921;43.214;27.936;2022-10-16T05:18:52;101891.03;;;13.40;88.63
9764;BME280;4921;43.214;27.936;2022-10-16T05:21:21;101888.63;;;13.37;86.87
9764;BME280;4921;43.214;27.936;2022-10-16T05:23:48;101895.78;;;13.47;86.02
9764;BME280;4921;43.214;27.936;2022-10-16T05:26:15;101904.22;;;13.52;84.67
9764;BME280;4921;43.214;27.936;2022-10-16T05:28:42;101905.81;;;13.55;84.97
9764;BME280;4921;43.214;27.936;2022-10-16T05:31:09;101911.22;;;13.53;86.02
9764;BME280;4921;43.214;27.936;2022-10-16T05:33:36;101916.50;;;13.53;85.87
9764;BME280;4921;43.214;27.936;2022-10-16T05:36:05;101912.34;;;13.62;85.29
9764;BME280;4921;43.214;27.936;2022-10-16T05:38:34;101911.38;;;13.63;85.82
9764;BME280;4921;43.214;27.936;2022-10-16T05:41:02;101917.19;;;13.68;84.87
9764;BME280;4921;43.214;27.936;2022-10-16T05:43:29;101919.50;;;13.72;84.52
9764;BME280;4921;43.214;27.936;2022-10-16T05:45:57;101920.13;;;13.76;84.13
9764;BME280;4921;43.214;27.936;2022-10-16T05:48:25;101919.72;;;13.82;82.33
9764;BME280;4921;43.214;27.936;2022-10-16T05:50:59;101919.59;;;13.84;83.55
9764;BME280;4921;43.214;27.936;2022-10-16T05:53:27;101921.91;;;13.88;82.95
9764;BME280;4921;43.214;27.936;2022-10-16T05:55:56;101928.44;;;13.95;83.25
9764;BME280;4921;43.214;27.936;2022-10-16T05:58:23;101934.88;;;14.04;82.21
9764;BME280;4921;43.214;27.936;2022-10-16T06:00:55;101938.97;;;14.08;82.16
9764;BME280;4921;43.214;27.936;2022-10-16T06:03:22;101941.50;;;14.09;82.28
9764;BME280;4921;43.214;27.936;2022-10-16T06:05:49;101946.72;;;14.22;81.14
9764;BME280;4921;43.214;27.936;2022-10-16T06:08:17;101950.41;;;14.32;80.84
9764;BME280;4921;43.214;27.936;2022-10-16T06:10:44;101957.53;;;14.31;80.30
9764;BME280;4921;43.214;27.936;2022-10-16T06:13:14;101950.47;;;14.43;78.91
9764;BME280;4921;43.214;27.936;2022-10-16T06:15:42;101948.66;;;14.43;78.68
9764;BME280;4921;43.214;27.936;2022-10-16T06:18:09;101951.91;;;14.47;78.82
9764;BME280;4921;43.214;27.936;2022-10-16T06:20:36;101949.19;;;14.48;78.92
9764;BME280;4921;43.214;27.936;2022-10-16T06:23:04;101955.94;;;14.52;79.62
9764;BME280;4921;43.214;27.936;2022-10-16T06:25:31;101955.97;;;14.64;80.14
9764;BME280;4921;43.214;27.936;2022-10-16T06:27:58;101954.31;;;14.74;78.76
9764;BME280;4921;43.214;27.936;2022-10-16T06:30:27;101966.84;;;14.83;78.03
9764;BME280;4921;43.214;27.936;2022-10-16T06:32:54;101959.28;;;14.89;78.06
9764;BME280;4921;43.214;27.936;2022-10-16T06:35:21;101964.25;;;14.94;78.38
9764;BME280;4921;43.214;27.936;2022-10-16T06:37:48;101956.06;;;15.08;77.50
9764;BME280;4921;43.214;27.936;2022-10-16T06:40:15;101965.38;;;15.13;77.50
9764;BME280;4921;43.214;27.936;2022-10-16T06:42:41;101971.41;;;15.26;77.00
9764;BME280;4921;43.214;27.936;2022-10-16T06:45:09;101967.78;;;15.27;78.12
9764;BME280;4921;43.214;27.936;2022-10-16T06:47:38;101975.97;;;15.36;78.14
9764;BME280;4921;43.214;27.936;2022-10-16T06:50:05;101981.56;;;15.44;77.77
9764;BME280;4921;43.214;27.936;2022-10-16T06:52:33;101978.94;;;15.55;77.14
9764;BME280;4921;43.214;27.936;2022-10-16T06:55:00;101970.34;;;15.62;76.20
9764;BME280;4921;43.214;27.936;2022-10-16T06:57:28;101980.97;;;15.73;76.15
9764;BME280;4921;43.214;27.936;2022-10-16T06:59:55;101984.09;;;15.78;77.75
9764;BME280;4921;43.214;27.936;2022-10-16T07:02:22;101985.91;;;15.89;76.51
9764;BME280;4921;43.214;27.936;2022-10-16T07:04:50;101990.06;;;16.02;74.95
9764;BME280;4921;43.214;27.936;2022-10-16T07:07:17;101989.84;;;16.06;74.64
9764;BME280;4921;43.214;27.936;2022-10-16T07:09:44;101991.75;;;16.15;73.76
9764;BME280;4921;43.214;27.936;2022-10-16T07:12:11;101983.63;;;16.27;73.42
9764;BME280;4921;43.214;27.936;2022-10-16T07:14:38;101989.53;;;16.31;73.29
9764;BME280;4921;43.214;27.936;2022-10-16T07:17:05;101996.03;;;16.38;72.08
9764;BME280;4921;43.214;27.936;2022-10-16T07:19:31;101995.53;;;16.44;71.12
9764;BME280;4921;43.214;27.936;2022-10-16T07:22:00;102002.16;;;16.49;70.16
9764;BME280;4921;43.214;27.936;2022-10-16T07:24:27;101995.38;;;16.56;69.68
9764;BME280;4921;43.214;27.936;2022-10-16T07:26:54;102002.34;;;16.68;69.75
9764;BME280;4921;43.214;27.936;2022-10-16T07:29:21;102004.16;;;16.68;69.21
9764;BME280;4921;43.214;27.936;2022-10-16T07:31:49;102000.59;;;16.78;67.97
9764;BME280;4921;43.214;27.936;2022-10-16T07:34:17;101997.38;;;16.75;66.90
9764;BME280;4921;43.214;27.936;2022-10-16T07:36:47;102005.53;;;16.83;66.89
9764;BME280;4921;43.214;27.936;2022-10-16T07:39:16;102008.38;;;16.91;65.85
9764;BME280;4921;43.214;27.936;2022-10-16T07:41:43;102006.78;;;17.00;65.51
9764;BME280;4921;43.214;27.936;2022-10-16T07:44:10;101993.56;;;17.09;65.18
9764;BME280;4921;43.214;27.936;2022-10-16T07:46:37;101999.78;;;17.19;64.15
9764;BME280;4921;43.214;27.936;2022-10-16T07:49:04;102009.16;;;17.23;64.40
9764;BME280;4921;43.214;27.936;2022-10-16T07:51:31;102006.72;;;17.31;64.13
9764;BME280;4921;43.214;27.936;2022-10-16T07:53:58;102011.56;;;17.26;63.81
9764;BME280;4921;43.214;27.936;2022-10-16T07:56:26;102007.44;;;17.33;61.61
9764;BME280;4921;43.214;27.936;2022-10-16T07:58:53;102006.75;;;17.41;60.94
9764;BME280;4921;43.214;27.936;2022-10-16T08:01:21;101997.41;;;17.46;59.73
9764;BME280;4921;43.214;27.936;2022-10-16T08:03:50;102001.00;;;17.57;59.29
9764;BME280;4921;43.214;27.936;2022-10-16T08:06:18;102007.97;;;17.58;59.37
9764;BME280;4921;43.214;27.936;2022-10-16T08:08:46;102000.19;;;17.66;58.83
9764;BME280;4921;43.214;27.936;2022-10-16T08:11:13;102002.16;;;17.73;58.07
9764;BME280;4921;43.214;27.936;2022-10-16T08:13:42;102006.84;;;17.81;58.18
9764;BME280;4921;43.214;27.936;2022-10-16T08:16:09;102003.09;;;17.93;57.82
9764;BME280;4921;43.214;27.936;2022-10-16T08:18:37;102000.56;;;18.01;57.12
9764;BME280;4921;43.214;27.936;2022-10-16T08:21:11;102004.94;;;18.02;55.71
9764;BME280;4921;43.214;27.936;2022-10-16T08:23:38;102008.88;;;18.07;55.32
9764;BME280;4921;43.214;27.936;2022-10-16T08:26:07;102007.59;;;18.11;54.95
9764;BME280;4921;43.214;27.936;2022-10-16T08:28:34;102010.84;;;18.15;55.09
9764;BME280;4921;43.214;27.936;2022-10-16T08:31:10;101999.66;;;18.21;54.38
9764;BME280;4921;43.214;27.936;2022-10-16T08:33:38;102005.72;;;18.33;53.98
9764;BME280;4921;43.214;27.936;2022-10-16T08:36:06;102006.72;;;18.41;54.02
9764;BME280;4921;43.214;27.936;2022-10-16T08:38:33;102003.78;;;18.44;52.41
9764;BME280;4921;43.214;27.936;2022-10-16T08:41:19;102005.47;;;18.45;51.60
9764;BME280;4921;43.214;27.936;2022-10-16T08:44:07;102009.28;;;18.52;51.14
9764;BME280;4921;43.214;27.936;2022-10-16T08:46:50;102006.59;;;18.62;51.70
9764;BME280;4921;43.214;27.936;2022-10-16T08:49:21;102014.19;;;18.66;51.31
9764;BME280;4921;43.214;27.936;2022-10-16T08:51:50;102010.09;;;18.72;51.24
9764;BME280;4921;43.214;27.936;2022-10-16T08:54:29;102013.50;;;18.74;49.93
9764;BME280;4921;43.214;27.936;2022-10-16T08:56:57;102013.63;;;18.82;49.91
9764;BME280;4921;43.214;27.936;2022-10-16T08:59:27;102022.31;;;18.84;49.30
9764;BME280;4921;43.214;27.936;2022-10-16T09:01:55;102018.22;;;18.89;49.61
9764;BME280;4921;43.214;27.936;2022-10-16T09:07:41;102025.53;;;18.97;48.46
9764;BME280;4921;43.214;27.936;2022-10-16T09:10:20;102001.53;;;18.87;47.47
9764;BME280;4921;43.214;27.936;2022-10-16T09:12:56;102023.41;;;19.00;48.01
9764;BME280;4921;43.214;27.936;2022-10-16T09:15:33;102024.28;;;19.01;48.88
9764;BME280;4921;43.214;27.936;2022-10-16T09:18:06;102032.69;;;19.06;48.97
9764;BME280;4921;43.214;27.936;2022-10-16T09:20:42;102023.69;;;19.07;48.00
9764;BME280;4921;43.214;27.936;2022-10-16T09:23:17;102021.84;;;19.17;47.33
9764;BME280;4921;43.214;27.936;2022-10-16T09:25:47;102018.34;;;19.17;46.95
9764;BME280;4921;43.214;27.936;2022-10-16T09:28:15;102016.66;;;19.16;46.90
9764;BME280;4921;43.214;27.936;2022-10-16T09:30:43;102021.56;;;19.20;46.93
9764;BME280;4921;43.214;27.936;2022-10-16T09:33:12;102028.41;;;19.32;47.17
9764;BME280;4921;43.214;27.936;2022-10-16T09:35:42;102019.31;;;19.35;46.34
9764;BME280;4921;43.214;27.936;2022-10-16T09:38:20;102023.69;;;19.36;46.05
9764;BME280;4921;43.214;27.936;2022-10-16T09:40:48;102024.63;;;19.44;45.39
9764;BME280;4921;43.214;27.936;2022-10-16T09:43:20;102026.03;;;19.48;45.48
9764;BME280;4921;43.214;27.936;2022-10-16T09:45:56;102020.78;;;19.56;45.57
9764;BME280;4921;43.214;27.936;2022-10-16T09:48:28;102019.66;;;19.59;45.04
9764;BME280;4921;43.214;27.936;2022-10-16T09:50:59;102030.88;;;19.62;44.52
9764;BME280;4921;43.214;27.936;2022-10-16T09:53:39;102014.59;;;19.65;44.56
9764;BME280;4921;43.214;27.936;2022-10-16T09:56:06;102024.41;;;19.65;44.75
9764;BME280;4921;43.214;27.936;2022-10-16T09:58:33;102018.78;;;19.68;44.24
9764;BME280;4921;43.214;27.936;2022-10-16T10:01:00;102019.91;;;19.75;43.87
9764;BME280;4921;43.214;27.936;2022-10-16T10:03:35;102016.63;;;19.81;44.61
9764;BME280;4921;43.214;27.936;2022-10-16T10:06:13;102014.22;;;19.88;44.25
9764;BME280;4921;43.214;27.936;2022-10-16T10:08:51;102018.88;;;19.86;44.47
9764;BME280;4921;43.214;27.936;2022-10-16T10:11:18;102023.44;;;19.93;43.91
9764;BME280;4921;43.214;27.936;2022-10-16T10:14:05;102013.91;;;19.91;42.98
9764;BME280;4921;43.214;27.936;2022-10-16T10:16:33;102011.19;;;20.00;43.26
9764;BME280;4921;43.214;27.936;2022-10-16T10:19:01;102026.78;;;20.05;43.67
9764;BME280;4921;43.214;27.936;2022-10-16T10:21:28;102012.97;;;20.09;43.08
9764;BME280;4921;43.214;27.936;2022-10-16T10:23:55;102014.97;;;20.07;42.87
9764;BME280;4921;43.214;27.936;2022-10-16T10:26:24;102009.47;;;20.09;43.11
9764;BME280;4921;43.214;27.936;2022-10-16T10:28:59;102004.50;;;20.14;42.82
9764;BME280;4921;43.214;27.936;2022-10-16T10:31:36;102000.13;;;20.22;44.27
9764;BME280;4921;43.214;27.936;2022-10-16T10:34:22;102016.25;;;20.03;43.10
9764;BME280;4921;43.214;27.936;2022-10-16T10:36:56;102016.00;;;19.97;43.49
9764;BME280;4921;43.214;27.936;2022-10-16T10:39:30;102008.38;;;20.02;44.36
9764;BME280;4921;43.214;27.936;2022-10-16T10:42:19;102014.06;;;20.16;43.63
9764;BME280;4921;43.214;27.936;2022-10-16T10:45:00;102015.47;;;20.20;43.63
9764;BME280;4921;43.214;27.936;2022-10-16T10:47:38;102002.81;;;20.22;43.32
9764;BME280;4921;43.214;27.936;2022-10-16T10:50:14;101992.34;;;20.29;42.87
9764;BME280;4921;43.214;27.936;2022-10-16T10:52:51;102007.69;;;20.27;43.01
9764;BME280;4921;43.214;27.936;2022-10-16T10:55:23;102002.03;;;20.30;42.86
9764;BME280;4921;43.214;27.936;2022-10-16T10:58:06;102006.84;;;20.26;42.85
9764;BME280;4921;43.214;27.936;2022-10-16T11:00:44;101991.50;;;20.28;42.61
9764;BME280;4921;43.214;27.936;2022-10-16T11:03:27;101993.03;;;20.31;42.93
9764;BME280;4921;43.214;27.936;2022-10-16T11:06:01;101987.38;;;20.34;42.90
9764;BME280;4921;43.214;27.936;2022-10-16T11:08:34;101975.19;;;20.31;42.43
9764;BME280;4921;43.214;27.936;2022-10-16T11:11:04;101985.94;;;20.22;42.30
9764;BME280;4921;43.214;27.936;2022-10-16T11:13:36;101983.31;;;20.30;41.85
9764;BME280;4921;43.214;27.936;2022-10-16T11:16:11;101982.25;;;20.40;41.21
9764;BME280;4921;43.214;27.936;2022-10-16T11:18:47;101998.28;;;20.23;40.63
9764;BME280;4921;43.214;27.936;2022-10-16T11:21:19;101991.22;;;20.31;40.96
9764;BME280;4921;43.214;27.936;2022-10-16T11:23:52;102004.09;;;20.36;40.95
9764;BME280;4921;43.214;27.936;2022-10-16T11:26:24;101998.41;;;20.48;40.65
9764;BME280;4921;43.214;27.936;2022-10-16T11:28:53;101999.84;;;20.43;40.50
9764;BME280;4921;43.214;27.936;2022-10-16T11:31:27;101990.97;;;20.60;40.36
9764;BME280;4921;43.214;27.936;2022-10-16T11:34:02;101992.50;;;20.80;39.93
9764;BME280;4921;43.214;27.936;2022-10-16T11:36:36;101998.41;;;20.92;39.84
9764;BME280;4921;43.214;27.936;2022-10-16T11:39:14;101998.81;;;20.79;39.91
9764;BME280;4921;43.214;27.936;2022-10-16T11:41:47;102003.63;;;20.93;39.98
9764;BME280;4921;43.214;27.936;2022-10-16T11:44:27;101995.25;;;21.06;39.65
9764;BME280;4921;43.214;27.936;2022-10-16T11:47:06;101988.34;;;20.86;40.11
9764;BME280;4921;43.214;27.936;2022-10-16T11:49:36;102000.97;;;20.93;39.75
9764;BME280;4921;43.214;27.936;2022-10-16T11:52:12;101998.06;;;21.04;39.41
9764;BME280;4921;43.214;27.936;2022-10-16T11:54:46;101995.28;;;21.14;39.10
9764;BME280;4921;43.214;27.936;2022-10-16T11:57:17;101983.66;;;21.23;39.10
9764;BME280;4921;43.214;27.936;2022-10-16T11:59:48;101979.19;;;21.32;39.05
9764;BME280;4921;43.214;27.936;2022-10-16T12:02:28;101983.97;;;21.46;39.40
9764;BME280;4921;43.214;27.936;2022-10-16T12:05:07;101984.28;;;21.43;39.20
9764;BME280;4921;43.214;27.936;2022-10-16T12:07:48;101972.75;;;21.50;38.65
9764;BME280;4921;43.214;27.936;2022-10-16T12:10:20;101988.72;;;21.60;38.23
9764;BME280;4921;43.214;27.936;2022-10-16T12:12:47;101993.28;;;21.42;37.95
9764;BME280;4921;43.214;27.936;2022-10-16T12:15:23;101989.66;;;21.51;38.11
9764;BME280;4921;43.214;27.936;2022-10-16T12:17:51;101996.53;;;21.53;38.61
9764;BME280;4921;43.214;27.936;2022-10-16T12:20:22;101984.69;;;21.30;39.12
9764;BME280;4921;43.214;27.936;2022-10-16T12:22:54;101992.09;;;21.36;38.78
9764;BME280;4921;43.214;27.936;2022-10-16T12:25:25;101996.63;;;21.44;38.77
9764;BME280;4921;43.214;27.936;2022-10-16T12:27:56;101999.69;;;21.49;38.31
9764;BME280;4921;43.214;27.936;2022-10-16T12:30:25;102007.88;;;21.47;37.93
9764;BME280;4921;43.214;27.936;2022-10-16T12:32:54;102005.00;;;21.15;38.24
9764;BME280;4921;43.214;27.936;2022-10-16T12:35:24;102005.56;;;21.26;38.32
9764;BME280;4921;43.214;27.936;2022-10-16T12:37:54;102010.63;;;21.30;38.16
9764;BME280;4921;43.214;27.936;2022-10-16T12:40:27;102019.22;;;21.15;37.21
9764;BME280;4921;43.214;27.936;2022-10-16T12:42:55;102020.03;;;21.16;37.21
9764;BME280;4921;43.214;27.936;2022-10-16T12:45:28;102019.31;;;21.06;37.34
9764;BME280;4921;43.214;27.936;2022-10-16T12:47:57;102031.59;;;20.81;38.19
9764;BME280;4921;43.214;27.936;2022-10-16T12:50:27;102023.91;;;20.96;38.54
9764;BME280;4921;43.214;27.936;2022-10-16T12:52:58;102029.16;;;21.05;38.68
9764;BME280;4921;43.214;27.936;2022-10-16T12:55:26;102018.69;;;20.77;39.15
9764;BME280;4921;43.214;27.936;2022-10-16T12:58:24;102022.22;;;20.77;39.55
9764;BME280;4921;43.214;27.936;2022-10-16T13:00:56;102027.16;;;20.90;39.99
9764;BME280;4921;43.214;27.936;2022-10-16T13:03:53;102032.06;;;20.94;40.01
9764;BME280;4921;43.214;27.936;2022-10-16T13:06:30;102031.75;;;20.97;39.68
9764;BME280;4921;43.214;27.936;2022-10-16T13:09:12;102022.19;;;20.95;39.17
9764;BME280;4921;43.214;27.936;2022-10-16T13:11:54;102016.63;;;20.88;39.43
9764;BME280;4921;43.214;27.936;2022-10-16T13:14:45;102018.44;;;20.88;39.47
9764;BME280;4921;43.214;27.936;2022-10-16T13:17:21;102024.66;;;20.88;39.45
9764;BME280;4921;43.214;27.936;2022-10-16T13:19:57;102025.78;;;20.86;39.29
9764;BME280;4921;43.214;27.936;2022-10-16T13:22:33;102034.66;;;20.86;39.65